Time;durP1;ratioP1;P1;durP2;ratioP2;P2;SDS_P1;SDS_P2;PMS_P1;PMS_P2;Temp;Humidity;BMP_temperature;BMP_pressure;BME280_temperature;BME280_humidity;BME280_pressure;Samples;Min_cycle;Max_cycle;Signal;HPM_P1;HPM_P2
2023/09/03 00:00:37;;;;;;;0.00;0.00;;;;;;;16.49;84.63;101301.84;5015483;28;20471;-77
2023/09/03 00:03:03;;;;;;;0.00;0.00;;;;;;;16.44;84.46;101299.94;5004107;28;20422;-76
2023/09/03 00:05:28;;;;;;;0.00;0.00;;;;;;;16.41;84.61;101306.00;5021335;28;20041;-77
2023/09/03 00:07:54;;;;;;;0.00;0.00;;;;;;;16.23;84.94;101283.47;5009515;28;20030;-76
2023/09/03 00:10:20;;;;;;;0.00;0.00;;;;;;;16.25;85.15;101290.63;5014745;28;20048;-75
2023/09/03 00:12:48;;;;;;;0.00;0.00;;;;;;;16.13;84.89;101278.00;5009238;28;20026;-76
2023/09/03 00:15:13;;;;;;;0.00;0.00;;;;;;;16.07;85.15;101276.38;5010526;28;20235;-75
2023/09/03 00:17:39;;;;;;;0.00;0.00;;;;;;;16.31;85.50;101306.91;5021452;28;20116;-74
2023/09/03 00:20:07;;;;;;;0.00;0.00;;;;;;;16.46;84.74;101307.94;5008494;28;20030;-74
2023/09/03 00:22:33;;;;;;;0.00;0.00;;;;;;;16.57;84.81;101315.88;5000958;28;20107;-74
2023/09/03 00:24:58;;;;;;;0.00;0.00;;;;;;;16.68;83.74;101310.28;5011260;28;20140;-74
2023/09/03 00:27:24;;;;;;;0.00;0.00;;;;;;;16.69;84.05;101306.41;5000482;28;20049;-73
2023/09/03 00:29:49;;;;;;;0.00;0.00;;;;;;;16.71;83.72;101309.72;5016336;28;20034;-75
2023/09/03 00:32:14;;;;;;;0.00;0.00;;;;;;;16.80;83.13;101307.97;4975250;28;20042;-74
2023/09/03 00:34:40;;;;;;;0.00;0.00;;;;;;;16.77;83.24;101303.03;5017484;28;20116;-74
2023/09/03 00:37:05;;;;;;;0.00;0.00;;;;;;;16.79;83.22;101303.56;4998018;28;20045;-75
2023/09/03 00:39:32;;;;;;;0.00;0.00;;;;;;;16.76;83.37;101306.91;5014709;28;20492;-73
2023/09/03 00:41:58;;;;;;;0.00;0.00;;;;;;;16.69;82.95;101295.34;5018767;28;20452;-73
2023/09/03 00:44:23;;;;;;;0.00;0.00;;;;;;;16.74;83.24;101309.13;5001738;28;20033;-75
2023/09/03 00:46:49;;;;;;;0.00;0.00;;;;;;;16.70;83.19;101302.53;5009535;28;20033;-74
2023/09/03 00:49:23;;;;;;;0.00;0.00;;;;;;;16.72;82.96;101303.91;5003187;28;20061;-75
2023/09/03 00:51:55;;;;;;;0.00;0.00;;;;;;;16.65;83.31;101303.41;5016748;28;20029;-75
2023/09/03 00:54:23;;;;;;;0.00;0.00;;;;;;;16.66;83.21;101312.50;5009793;28;20037;-74
2023/09/03 00:56:55;;;;;;;0.00;0.00;;;;;;;16.60;83.30;101308.13;5012502;28;20105;-76
2023/09/03 00:59:22;;;;;;;0.00;0.00;;;;;;;16.64;83.55;101309.19;5014309;28;20127;-74
2023/09/03 01:01:51;;;;;;;0.00;0.00;;;;;;;16.58;83.41;101314.75;5017845;28;20025;-75
2023/09/03 01:04:18;;;;;;;0.00;0.00;;;;;;;16.55;83.31;101308.97;5006642;28;20115;-75
2023/09/03 01:06:44;;;;;;;0.00;0.00;;;;;;;16.45;83.38;101307.09;5016566;28;20100;-73
2023/09/03 01:09:10;;;;;;;0.00;0.00;;;;;;;16.54;83.25;101321.97;5008236;28;20030;-74
2023/09/03 01:11:49;;;;;;;0.00;0.00;;;;;;;16.49;83.62;101324.75;5015240;28;20053;-75
2023/09/03 01:14:36;;;;;;;0.00;0.00;;;;;;;16.49;83.61;101321.97;5018756;28;20112;-74
2023/09/03 01:17:35;;;;;;;0.00;0.00;;;;;;;16.47;83.60;101338.00;5012455;28;20025;-74
2023/09/03 01:20:12;;;;;;;0.00;0.00;;;;;;;16.45;83.47;101320.91;5010111;28;20026;-76
2023/09/03 01:23:14;;;;;;;0.00;0.00;;;;;;;16.43;83.75;101325.03;5011435;28;20025;-75
2023/09/03 01:25:49;;;;;;;0.00;0.00;;;;;;;16.41;83.32;101322.56;5009805;28;20132;-75
2023/09/03 01:28:20;;;;;;;0.00;0.00;;;;;;;16.40;83.54;101326.44;5004283;28;20029;-75
2023/09/03 01:30:47;;;;;;;0.00;0.00;;;;;;;16.37;83.55;101321.50;5012273;28;20029;-75
2023/09/03 01:33:15;;;;;;;0.00;0.00;;;;;;;16.35;83.74;101323.69;5034378;28;20029;-75
2023/09/03 01:35:41;;;;;;;0.00;0.00;;;;;;;16.37;83.40;101329.78;5013424;28;20584;-74
2023/09/03 01:38:07;;;;;;;0.00;0.00;;;;;;;16.31;83.62;101330.91;4987580;28;20065;-74
2023/09/03 01:40:32;;;;;;;0.00;0.00;;;;;;;16.36;83.83;101339.97;5015330;28;20064;-73
2023/09/03 01:42:58;;;;;;;0.00;0.00;;;;;;;16.34;83.29;101336.69;5018773;28;20523;-74
2023/09/03 01:45:30;;;;;;;0.00;0.00;;;;;;;16.29;83.33;101327.59;5019184;28;20049;-73
2023/09/03 01:48:05;;;;;;;0.00;0.00;;;;;;;16.31;83.49;101330.91;5005789;28;20120;-73
2023/09/03 01:50:40;;;;;;;0.00;0.00;;;;;;;16.32;83.52;101335.31;5016382;28;20028;-73
2023/09/03 01:53:21;;;;;;;0.00;0.00;;;;;;;16.31;83.83;101336.41;5015642;28;20029;-75
2023/09/03 01:55:54;;;;;;;0.00;0.00;;;;;;;16.21;83.60;101329.84;5002620;28;20375;-73
2023/09/03 01:58:26;;;;;;;0.00;0.00;;;;;;;16.21;83.85;101332.59;5006122;28;20080;-75
2023/09/03 02:00:52;;;;;;;0.00;0.00;;;;;;;16.17;83.66;101337.03;5015672;28;20076;-74
2023/09/03 02:03:19;;;;;;;0.00;0.00;;;;;;;16.16;83.67;101349.16;5019124;28;20030;-74
2023/09/03 02:05:45;;;;;;;0.00;0.00;;;;;;;16.09;83.86;101342.28;5018127;28;20072;-73
2023/09/03 02:08:11;;;;;;;0.00;0.00;;;;;;;16.05;83.76;101348.38;5020835;28;20041;-73
2023/09/03 02:10:36;;;;;;;0.00;0.00;;;;;;;16.02;83.80;101328.81;5025480;28;20299;-74
2023/09/03 02:13:02;;;;;;;0.00;0.00;;;;;;;15.96;83.66;101335.44;5000985;28;20038;-72
2023/09/03 02:15:27;;;;;;;0.00;0.00;;;;;;;15.96;84.10;101327.16;5012776;28;20033;-73
2023/09/03 02:17:55;;;;;;;0.00;0.00;;;;;;;15.92;84.01;101332.41;5019669;28;20053;-72
2023/09/03 02:20:20;;;;;;;0.00;0.00;;;;;;;15.82;83.99;101322.22;5014595;28;20036;-74
2023/09/03 02:22:45;;;;;;;0.00;0.00;;;;;;;15.79;84.08;101317.28;5006496;28;20041;-74
2023/09/03 02:25:11;;;;;;;0.00;0.00;;;;;;;15.83;84.14;101334.94;4995122;28;20089;-73
2023/09/03 02:27:36;;;;;;;0.00;0.00;;;;;;;15.82;84.34;101333.25;5001259;28;19948;-73
2023/09/03 02:30:02;;;;;;;0.00;0.00;;;;;;;15.79;84.67;101336.59;5019506;28;20030;-74
2023/09/03 02:32:27;;;;;;;0.00;0.00;;;;;;;15.75;84.33;101335.44;5014374;28;20091;-76
2023/09/03 02:34:53;;;;;;;0.00;0.00;;;;;;;15.69;84.63;101326.34;5018037;28;20037;-73
2023/09/03 02:37:18;;;;;;;0.00;0.00;;;;;;;15.68;84.61;101332.16;4991525;28;20924;-74
2023/09/03 02:39:44;;;;;;;0.00;0.00;;;;;;;15.67;84.54;101342.38;5001547;28;20032;-74
2023/09/03 02:42:09;;;;;;;0.00;0.00;;;;;;;15.65;84.65;101336.31;5013641;28;20121;-75
2023/09/03 02:44:34;;;;;;;0.00;0.00;;;;;;;15.63;85.02;101337.69;5012546;28;20030;-75
2023/09/03 02:47:00;;;;;;;0.00;0.00;;;;;;;15.62;84.69;101344.31;5012935;28;20104;-73
2023/09/03 02:49:25;;;;;;;0.00;0.00;;;;;;;15.56;84.77;101339.91;5008812;28;20025;-74
2023/09/03 02:51:51;;;;;;;0.00;0.00;;;;;;;15.57;84.76;101342.38;5002193;28;20040;-75
2023/09/03 02:54:16;;;;;;;0.00;0.00;;;;;;;15.53;84.91;101342.09;5013168;28;20453;-72
2023/09/03 02:56:41;;;;;;;0.00;0.00;;;;;;;15.50;85.05;101341.84;5002146;28;20531;-74
2023/09/03 02:59:07;;;;;;;0.00;0.00;;;;;;;15.48;84.70;101349.56;4996785;28;20038;-73
2023/09/03 03:01:33;;;;;;;0.00;0.00;;;;;;;15.45;85.08;101344.56;4981062;28;20083;-73
2023/09/03 03:03:59;;;;;;;0.00;0.00;;;;;;;15.46;85.09;101351.75;5019514;28;20033;-74
2023/09/03 03:06:24;;;;;;;0.00;0.00;;;;;;;15.40;85.55;101344.59;5011016;28;20030;-73
2023/09/03 03:08:50;;;;;;;0.00;0.00;;;;;;;15.38;85.43;101342.13;5012578;28;20057;-72
2023/09/03 03:11:16;;;;;;;0.00;0.00;;;;;;;15.41;85.63;101355.34;5014072;28;20112;-75
2023/09/03 03:13:44;;;;;;;0.00;0.00;;;;;;;15.40;85.59;101358.38;5031405;28;20771;-74
2023/09/03 03:16:11;;;;;;;0.00;0.00;;;;;;;15.39;85.56;101363.06;5014028;28;20530;-74
2023/09/03 03:18:39;;;;;;;0.00;0.00;;;;;;;15.34;85.76;101354.78;5006815;28;20173;-74
2023/09/03 03:21:06;;;;;;;0.00;0.00;;;;;;;15.40;86.06;101369.41;5022081;28;20075;-75
2023/09/03 03:23:32;;;;;;;0.00;0.00;;;;;;;15.43;86.21;101375.19;5015072;28;20120;-74
2023/09/03 03:25:57;;;;;;;0.00;0.00;;;;;;;15.44;85.75;101365.00;5009957;28;20045;-75
2023/09/03 03:28:23;;;;;;;0.00;0.00;;;;;;;15.39;86.00;101353.97;5001370;28;20395;-74
2023/09/03 03:30:48;;;;;;;0.00;0.00;;;;;;;15.42;86.09;101357.00;5010930;28;20048;-75
2023/09/03 03:33:13;;;;;;;0.00;0.00;;;;;;;15.37;85.98;101357.00;5017108;28;20033;-75
2023/09/03 03:35:39;;;;;;;0.00;0.00;;;;;;;15.32;86.45;101346.00;5018544;28;20062;-75
2023/09/03 03:38:04;;;;;;;0.00;0.00;;;;;;;15.32;86.48;101351.50;5015905;28;20026;-73
2023/09/03 03:40:30;;;;;;;0.00;0.00;;;;;;;15.33;86.62;101342.09;4994327;28;20045;-74
2023/09/03 03:42:55;;;;;;;0.00;0.00;;;;;;;15.28;86.61;101339.38;5006504;28;20026;-74
2023/09/03 03:45:20;;;;;;;0.00;0.00;;;;;;;15.28;86.74;101340.19;5007839;28;20034;-73
2023/09/03 03:47:46;;;;;;;0.00;0.00;;;;;;;15.27;86.53;101344.03;5018889;28;20029;-74
2023/09/03 03:50:11;;;;;;;0.00;0.00;;;;;;;15.24;86.92;101349.28;5015065;28;20064;-73
2023/09/03 03:52:36;;;;;;;0.00;0.00;;;;;;;15.19;86.93;101347.34;5003106;28;20033;-74
2023/09/03 03:55:02;;;;;;;0.00;0.00;;;;;;;15.22;86.97;101351.50;5005030;28;20030;-73
2023/09/03 03:57:27;;;;;;;0.00;0.00;;;;;;;15.19;87.26;101352.88;5016840;28;20065;-74
2023/09/03 03:59:53;;;;;;;0.00;0.00;;;;;;;15.23;87.15;101353.97;5001373;28;20022;-75
2023/09/03 04:02:18;;;;;;;0.00;0.00;;;;;;;15.22;87.27;101355.06;5017129;28;20033;-73
2023/09/03 04:04:44;;;;;;;0.00;0.00;;;;;;;15.21;87.55;101358.09;4995542;28;21706;-74
2023/09/03 04:07:09;;;;;;;0.00;0.00;;;;;;;15.13;87.62;101354.78;5019855;28;20061;-74
2023/09/03 04:09:35;;;;;;;0.00;0.00;;;;;;;15.14;87.72;101350.94;5005774;28;20120;-74
2023/09/03 04:12:01;;;;;;;0.00;0.00;;;;;;;15.15;87.88;101362.78;5022845;28;20463;-76
2023/09/03 04:14:26;;;;;;;0.00;0.00;;;;;;;15.13;87.66;101354.78;5022400;28;20066;-75
2023/09/03 04:16:52;;;;;;;0.00;0.00;;;;;;;15.06;87.91;101348.72;5012963;28;20033;-74
2023/09/03 04:19:17;;;;;;;0.00;0.00;;;;;;;15.12;88.24;101360.56;5023529;28;20026;-76
2023/09/03 04:21:43;;;;;;;0.00;0.00;;;;;;;15.10;88.22;101360.84;5011864;28;20127;-75
2023/09/03 04:24:09;;;;;;;0.00;0.00;;;;;;;15.10;88.13;101355.34;5022823;28;20192;-75
2023/09/03 04:26:36;;;;;;;0.00;0.00;;;;;;;15.11;88.27;101356.16;5016061;28;20635;-75
2023/09/03 04:29:02;;;;;;;0.00;0.00;;;;;;;15.09;88.16;101348.16;5010393;28;20021;-77
2023/09/03 04:31:28;;;;;;;0.00;0.00;;;;;;;15.08;88.30;101356.69;5017822;28;20492;-74
2023/09/03 04:33:53;;;;;;;0.00;0.00;;;;;;;15.08;88.26;101352.00;5007334;28;20119;-74
2023/09/03 04:36:19;;;;;;;0.00;0.00;;;;;;;15.11;88.47;101361.66;5014644;28;20056;-75
2023/09/03 04:38:44;;;;;;;0.00;0.00;;;;;;;15.11;88.92;101350.63;5015181;28;20127;-75
2023/09/03 04:41:09;;;;;;;0.00;0.00;;;;;;;15.10;89.25;101354.50;5021471;28;20079;-74
2023/09/03 04:43:43;;;;;;;0.00;0.00;;;;;;;15.12;89.13;101358.63;4995431;28;20034;-74
2023/09/03 04:46:09;;;;;;;0.00;0.00;;;;;;;15.11;88.82;101339.63;5007920;28;20034;-75
2023/09/03 04:48:34;;;;;;;0.00;0.00;;;;;;;15.12;89.12;101347.63;5014494;28;20095;-75
2023/09/03 04:51:04;;;;;;;0.00;0.00;;;;;;;15.11;89.17;101345.97;4995389;28;20480;-75
2023/09/03 04:53:32;;;;;;;0.00;0.00;;;;;;;15.04;89.33;101339.06;5014966;28;20499;-73
2023/09/03 04:55:58;;;;;;;0.00;0.00;;;;;;;14.98;89.44;101344.56;5014576;28;20025;-74
2023/09/03 04:58:24;;;;;;;0.00;0.00;;;;;;;14.93;89.48;101343.75;5004896;28;20732;-74
2023/09/03 05:00:49;;;;;;;0.00;0.00;;;;;;;14.92;90.05;101353.09;5017895;28;20029;-74
2023/09/03 05:03:14;;;;;;;0.00;0.00;;;;;;;14.88;89.75;101360.25;5007714;28;20427;-74
2023/09/03 05:05:41;;;;;;;0.00;0.00;;;;;;;14.89;90.16;101364.66;5007165;28;20032;-75
2023/09/03 05:08:08;;;;;;;0.00;0.00;;;;;;;14.93;89.71;101357.50;5009472;28;20703;-74
2023/09/03 05:10:34;;;;;;;0.00;0.00;;;;;;;15.04;89.59;101361.09;5020106;28;20029;-75
2023/09/03 05:12:59;;;;;;;0.00;0.00;;;;;;;15.16;89.55;101356.97;5006862;28;20037;-73
2023/09/03 05:15:25;;;;;;;0.00;0.00;;;;;;;15.30;89.30;101360.03;5024991;28;20017;-74
2023/09/03 05:17:50;;;;;;;0.00;0.00;;;;;;;15.34;88.90;101363.06;5010405;28;20021;-75
2023/09/03 05:20:16;;;;;;;0.00;0.00;;;;;;;15.42;88.61;101362.53;4993734;28;20037;-76
2023/09/03 05:22:42;;;;;;;0.00;0.00;;;;;;;15.51;88.52;101357.28;5009527;28;20045;-75
2023/09/03 05:25:08;;;;;;;0.00;0.00;;;;;;;15.59;88.29;101358.63;5020069;28;20062;-74
2023/09/03 05:27:33;;;;;;;0.00;0.00;;;;;;;15.64;88.32;101353.13;5021905;28;20103;-75
2023/09/03 05:29:59;;;;;;;0.00;0.00;;;;;;;15.67;88.36;101352.56;5005388;28;20030;-75
2023/09/03 05:32:24;;;;;;;0.00;0.00;;;;;;;15.74;88.31;101353.13;5021435;28;20095;-74
2023/09/03 05:34:50;;;;;;;0.00;0.00;;;;;;;15.78;88.44;101354.22;5010684;28;20088;-75
2023/09/03 05:37:16;;;;;;;0.00;0.00;;;;;;;15.86;88.44;101355.59;5018875;28;20033;-74
2023/09/03 05:39:41;;;;;;;0.00;0.00;;;;;;;15.94;88.25;101365.25;5023261;28;20616;-75
2023/09/03 05:42:07;;;;;;;0.00;0.00;;;;;;;15.95;87.88;101369.66;5017860;28;20039;-75
2023/09/03 05:44:32;;;;;;;0.00;0.00;;;;;;;15.95;87.88;101364.97;5023807;28;20497;-75
2023/09/03 05:46:58;;;;;;;0.00;0.00;;;;;;;16.02;88.05;101373.78;5017349;28;20056;-75
2023/09/03 05:49:23;;;;;;;0.00;0.00;;;;;;;16.07;87.90;101372.94;5006405;28;20034;-74
2023/09/03 05:51:49;;;;;;;0.00;0.00;;;;;;;16.10;87.82;101380.63;5013486;28;20469;-72
2023/09/03 05:54:14;;;;;;;0.00;0.00;;;;;;;16.10;87.51;101377.88;5000750;28;20148;-74
2023/09/03 05:56:39;;;;;;;0.00;0.00;;;;;;;16.11;87.87;101387.00;5013106;28;20030;-73
2023/09/03 05:59:05;;;;;;;0.00;0.00;;;;;;;16.05;87.81;101378.72;5020440;28;20026;-74
2023/09/03 06:01:32;;;;;;;0.00;0.00;;;;;;;16.11;87.36;101385.06;5016132;28;20395;-73
2023/09/03 06:04:02;;;;;;;0.00;0.00;;;;;;;16.14;87.42;101386.44;5017399;28;20052;-74
2023/09/03 06:06:27;;;;;;;0.00;0.00;;;;;;;16.17;87.63;101378.41;5007799;28;20038;-73
2023/09/03 06:08:54;;;;;;;0.00;0.00;;;;;;;16.20;87.51;101377.03;5025675;28;20546;-74
2023/09/03 06:11:20;;;;;;;0.00;0.00;;;;;;;16.21;87.29;101368.47;5011401;28;20041;-74
2023/09/03 06:13:45;;;;;;;0.00;0.00;;;;;;;16.26;87.09;101381.41;5022646;28;20037;-75
2023/09/03 06:16:11;;;;;;;0.00;0.00;;;;;;;16.30;87.01;101376.19;5014435;28;20480;-74
2023/09/03 06:18:36;;;;;;;0.00;0.00;;;;;;;16.31;86.95;101361.25;4993500;28;20026;-74
2023/09/03 06:21:02;;;;;;;0.00;0.00;;;;;;;16.34;86.96;101375.34;4997426;28;20037;-73
2023/09/03 06:23:27;;;;;;;0.00;0.00;;;;;;;16.41;87.17;101383.28;5015820;28;20034;-76
2023/09/03 06:25:53;;;;;;;0.00;0.00;;;;;;;16.50;86.14;101397.34;5023700;28;20056;-74
2023/09/03 06:28:18;;;;;;;0.00;0.00;;;;;;;16.54;86.32;101402.03;5011333;28;20041;-73
2023/09/03 06:30:43;;;;;;;0.00;0.00;;;;;;;16.61;85.73;101410.00;5006831;28;20029;-75
2023/09/03 06:33:11;;;;;;;0.00;0.00;;;;;;;16.58;86.02;101400.34;5013020;28;20036;-72
2023/09/03 06:35:37;;;;;;;0.00;0.00;;;;;;;16.64;85.65;101405.84;5005278;28;20029;-73
2023/09/03 06:38:03;;;;;;;0.00;0.00;;;;;;;16.65;86.00;101393.72;5000758;28;20033;-74
2023/09/03 06:40:28;;;;;;;0.00;0.00;;;;;;;16.63;86.15;101384.88;5022542;28;20026;-74
2023/09/03 06:42:53;;;;;;;0.00;0.00;;;;;;;16.89;85.98;101407.69;5019636;28;20065;-74
2023/09/03 06:45:19;;;;;;;0.00;0.00;;;;;;;17.01;85.09;101408.19;5003812;28;20384;-74
2023/09/03 06:47:45;;;;;;;0.00;0.00;;;;;;;17.04;84.85;101402.09;5018578;28;20134;-74
2023/09/03 06:50:14;;;;;;;0.00;0.00;;;;;;;17.15;84.95;101419.41;5016414;28;20033;-74
2023/09/03 06:52:47;;;;;;;0.00;0.00;;;;;;;17.19;84.79;101423.25;5016244;28;20711;-75
2023/09/03 06:55:12;;;;;;;0.00;0.00;;;;;;;17.20;84.10;101415.78;5021743;28;20030;-75
2023/09/03 06:57:38;;;;;;;0.00;0.00;;;;;;;17.29;84.10;101430.66;5004599;28;20036;-74
2023/09/03 07:00:10;;;;;;;0.00;0.00;;;;;;;17.37;83.55;101424.50;5019459;28;20052;-75
2023/09/03 07:02:35;;;;;;;0.00;0.00;;;;;;;17.48;83.73;101422.50;5016773;28;20116;-74
2023/09/03 07:05:01;;;;;;;0.00;0.00;;;;;;;17.57;83.56;101425.47;5013013;28;20039;-75
2023/09/03 07:07:27;;;;;;;0.00;0.00;;;;;;;17.73;82.66;101423.41;5016262;28;20091;-75
2023/09/03 07:09:55;;;;;;;0.00;0.00;;;;;;;17.79;82.84;101427.78;5014818;28;20480;-74
2023/09/03 07:12:31;;;;;;;0.00;0.00;;;;;;;17.94;82.25;101424.88;5021033;28;20033;-75
2023/09/03 07:14:59;;;;;;;0.00;0.00;;;;;;;17.96;81.76;101411.59;5000431;28;21575;-75
2023/09/03 07:17:24;;;;;;;0.00;0.00;;;;;;;18.12;81.88;101425.25;5024597;28;20041;-75
2023/09/03 07:19:53;;;;;;;0.00;0.00;;;;;;;18.11;81.58;101424.44;4996622;28;20997;-75
2023/09/03 07:22:19;;;;;;;0.00;0.00;;;;;;;18.17;81.11;101433.53;5020281;28;20085;-74
2023/09/03 07:24:44;;;;;;;0.00;0.00;;;;;;;18.25;81.56;101435.66;5018800;28;20060;-75
2023/09/03 07:27:09;;;;;;;0.00;0.00;;;;;;;18.22;80.69;101427.91;5011022;28;20060;-74
2023/09/03 07:29:35;;;;;;;0.00;0.00;;;;;;;18.27;81.21;101438.94;5019490;28;20356;-73
2023/09/03 07:32:00;;;;;;;0.00;0.00;;;;;;;18.34;80.63;101443.31;5011257;28;22273;-72
2023/09/03 07:34:28;;;;;;;0.00;0.00;;;;;;;18.50;80.58;101447.56;5007956;28;20128;-74
2023/09/03 07:36:53;;;;;;;0.00;0.00;;;;;;;18.71;80.34;101447.31;5015817;28;20456;-74
2023/09/03 07:39:19;;;;;;;0.00;0.00;;;;;;;18.95;79.14;101453.69;5014954;28;20055;-75
2023/09/03 07:41:46;;;;;;;0.00;0.00;;;;;;;19.14;79.13;101450.09;5016041;28;20087;-75
2023/09/03 07:44:11;;;;;;;0.00;0.00;;;;;;;19.38;78.33;101438.09;5020531;28;20448;-74
2023/09/03 07:46:36;;;;;;;0.00;0.00;;;;;;;19.73;77.27;101446.97;5001746;28;20073;-74
2023/09/03 07:49:02;;;;;;;0.00;0.00;;;;;;;20.00;76.95;101449.03;5008817;28;20041;-74
2023/09/03 07:51:28;;;;;;;0.00;0.00;;;;;;;20.08;76.17;101453.88;4994645;28;20037;-75
2023/09/03 07:53:53;;;;;;;0.00;0.00;;;;;;;19.90;76.08;101438.09;5008975;28;20034;-75
2023/09/03 07:56:19;;;;;;;0.00;0.00;;;;;;;19.90;75.78;101458.34;5013371;28;20522;-73
2023/09/03 07:58:45;;;;;;;0.00;0.00;;;;;;;19.92;75.87;101458.88;5015877;28;20095;-75
2023/09/03 08:01:16;;;;;;;0.00;0.00;;;;;;;20.06;75.60;101453.34;5003453;28;20046;-73
2023/09/03 08:03:46;;;;;;;0.00;0.00;;;;;;;20.25;74.68;101436.59;5018994;28;20071;-73
2023/09/03 08:06:13;;;;;;;0.00;0.00;;;;;;;20.34;74.23;101448.66;5002650;28;20442;-76
2023/09/03 08:08:39;;;;;;;0.00;0.00;;;;;;;20.32;74.40;101444.56;5008650;28;20044;-77
2023/09/03 08:11:07;;;;;;;0.00;0.00;;;;;;;20.59;74.14;101449.31;5014731;28;20037;-75
2023/09/03 08:13:33;;;;;;;0.00;0.00;;;;;;;20.82;72.89;101424.38;5013559;28;20029;-75
2023/09/03 08:15:58;;;;;;;0.00;0.00;;;;;;;21.23;72.03;101460.44;5008959;28;20037;-75
2023/09/03 08:18:26;;;;;;;0.00;0.00;;;;;;;21.67;71.06;101462.78;5008532;28;20040;-74
2023/09/03 08:20:52;;;;;;;0.00;0.00;;;;;;;21.91;69.90;101454.13;4983159;28;20030;-75
2023/09/03 08:23:18;;;;;;;0.00;0.00;;;;;;;22.18;68.94;101464.25;5007457;28;20068;-75
2023/09/03 08:25:43;;;;;;;0.00;0.00;;;;;;;22.49;68.84;101464.25;5005181;28;20673;-75
2023/09/03 08:28:17;;;;;;;0.00;0.00;;;;;;;23.48;66.72;101453.78;5013894;28;20030;-76
2023/09/03 08:30:43;;;;;;;0.00;0.00;;;;;;;24.30;63.76;101466.94;5006742;28;20520;-74
2023/09/03 08:33:08;;;;;;;0.00;0.00;;;;;;;24.84;61.50;101447.63;5015075;28;20035;-73
2023/09/03 08:35:36;;;;;;;0.00;0.00;;;;;;;25.11;59.78;101456.66;5006206;28;20034;-75
2023/09/03 08:38:01;;;;;;;0.00;0.00;;;;;;;25.25;59.16;101453.59;5020640;28;20025;-75
2023/09/03 08:40:43;;;;;;;0.00;0.00;;;;;;;25.84;58.07;101448.97;5012332;28;20030;-76
2023/09/03 08:43:32;;;;;;;0.00;0.00;;;;;;;26.58;56.13;101468.75;5039511;28;20033;-74
2023/09/03 08:46:19;;;;;;;0.00;0.00;;;;;;;27.03;54.76;101447.31;5013418;28;20026;-75
2023/09/03 08:48:57;;;;;;;;;;;;;;;;;;;;;
2023/09/03 08:51:26;;;;;;;0.00;0.00;;;;;;;28.34;51.10;101454.25;5012922;28;20030;-75
2023/09/03 08:54:01;;;;;;;0.00;0.00;;;;;;;28.83;50.12;101440.97;4997913;28;20029;-75
2023/09/03 08:56:50;;;;;;;0.00;0.00;;;;;;;29.46;48.88;101468.09;5020435;28;20061;-74
2023/09/03 09:03:36;;;;;;;0.00;0.00;;;;;;;30.54;45.54;101469.31;4954901;28;20429;-75
2023/09/03 09:06:41;;;;;;;0.00;0.00;;;;;;;31.07;44.39;101489.09;4975320;28;20029;-75
2023/09/03 09:10:00;;;;;;;0.00;0.00;;;;;;;30.13;44.41;101429.50;5005498;28;20038;-76
2023/09/03 09:13:34;;;;;;;;;;;;;;;;;;;;;
2023/09/03 09:19:30;;;;;;;0.00;0.00;;;;;;;27.97;50.19;101433.97;4813751;29;20030;-76
2023/09/03 09:22:04;;;;;;;0.00;0.00;;;;;;;28.35;49.37;101432.56;4781060;29;20045;-75
2023/09/03 09:25:10;;;;;;;;;;;;;;;;;;;;;
2023/09/03 09:27:40;;;;;;;0.00;0.00;;;;;;;29.77;46.54;101444.56;4825608;29;20063;-75
2023/09/03 09:30:12;;;;;;;0.00;0.00;;;;;;;30.76;45.29;101488.19;4881908;29;20568;-75
2023/09/03 09:32:40;;;;;;;0.00;0.00;;;;;;;31.64;43.05;101496.72;4974786;28;20115;-76
2023/09/03 09:35:06;;;;;;;0.00;0.00;;;;;;;32.33;40.87;101486.94;4997824;28;20386;-77
2023/09/03 09:37:42;;;;;;;0.00;0.00;;;;;;;32.47;40.28;101492.72;4984207;28;20120;-75
2023/09/03 09:40:26;;;;;;;0.00;0.00;;;;;;;32.46;39.22;101471.28;4967475;28;20026;-74
2023/09/03 09:43:03;;;;;;;0.00;0.00;;;;;;;32.73;38.43;101481.63;4981091;28;20017;-75
2023/09/03 09:45:33;;;;;;;0.00;0.00;;;;;;;33.70;36.63;101487.78;4981924;28;20030;-76
2023/09/03 09:48:17;;;;;;;0.00;0.00;;;;;;;33.81;35.66;101494.34;4987267;28;20029;-75
2023/09/03 09:50:44;;;;;;;0.00;0.00;;;;;;;34.81;34.92;101498.47;4989669;28;20026;-75
2023/09/03 09:53:41;;;;;;;0.00;0.00;;;;;;;35.37;33.19;101495.09;4986454;28;20018;-74
2023/09/03 09:56:13;;;;;;;0.00;0.00;;;;;;;36.01;32.84;101496.84;4961236;28;20042;-75
2023/09/03 09:58:40;;;;;;;0.00;0.00;;;;;;;36.48;31.77;101479.41;4992797;28;20104;-75
2023/09/03 10:01:08;;;;;;;0.00;0.00;;;;;;;37.26;31.07;101491.25;4966224;28;20026;-74
2023/09/03 10:03:41;;;;;;;0.00;0.00;;;;;;;38.18;29.94;101492.41;4982692;28;20062;-75
2023/09/03 10:06:12;;;;;;;0.00;0.00;;;;;;;38.70;29.18;101486.25;4990563;28;20022;-73
2023/09/03 10:08:39;;;;;;;0.00;0.00;;;;;;;39.32;28.22;101480.16;4984778;28;20042;-75
2023/09/03 10:11:04;;;;;;;0.00;0.00;;;;;;;39.16;26.93;101468.66;4984796;28;20424;-74
2023/09/03 10:13:31;;;;;;;0.00;0.00;;;;;;;39.10;26.64;101474.84;4994460;28;20047;-75
2023/09/03 10:16:03;;;;;;;0.00;0.00;;;;;;;39.49;26.79;101480.19;4993807;28;20066;-74
2023/09/03 10:18:32;;;;;;;0.00;0.00;;;;;;;40.10;26.09;101479.66;4961236;28;20022;-75
2023/09/03 10:21:00;;;;;;;0.00;0.00;;;;;;;40.66;24.79;101486.41;4978425;28;20088;-75
2023/09/03 10:23:31;;;;;;;0.00;0.00;;;;;;;40.51;24.29;101486.00;4964418;28;21955;-75
2023/09/03 10:25:57;;;;;;;0.00;0.00;;;;;;;40.57;24.14;101477.66;5016271;28;20484;-75
2023/09/03 10:28:25;;;;;;;0.00;0.00;;;;;;;41.57;23.80;101484.66;5009683;28;20037;-75
2023/09/03 10:30:54;;;;;;;0.00;0.00;;;;;;;41.92;22.95;101490.56;5017977;28;20029;-75
2023/09/03 10:33:19;;;;;;;0.00;0.00;;;;;;;42.24;22.40;101497.34;5006616;28;20041;-75
2023/09/03 10:36:11;;;;;;;0.00;0.00;;;;;;;42.70;22.25;101494.91;5009161;28;20026;-76
2023/09/03 10:38:36;;;;;;;0.00;0.00;;;;;;;42.85;21.72;101487.38;5025923;28;20044;-75
2023/09/03 10:41:19;;;;;;;0.00;0.00;;;;;;;44.11;21.05;101491.13;5005466;28;20037;-74
2023/09/03 10:43:52;;;;;;;0.00;0.00;;;;;;;44.87;20.28;101493.66;5018797;28;20350;-74
2023/09/03 10:46:18;;;;;;;0.00;0.00;;;;;;;44.96;19.96;101496.56;5016505;28;20068;-76
2023/09/03 10:48:52;;;;;;;0.00;0.00;;;;;;;44.91;19.15;101488.53;5015426;28;20400;-75
2023/09/03 10:51:35;;;;;;;0.00;0.00;;;;;;;45.67;19.07;101472.69;5019139;28;20022;-75
2023/09/03 10:54:20;;;;;;;0.00;0.00;;;;;;;46.12;18.15;101479.53;5014856;28;20124;-75
2023/09/03 10:57:04;;;;;;;0.00;0.00;;;;;;;46.20;17.98;101480.78;5016029;28;20549;-75
2023/09/03 10:59:57;;;;;;;0.00;0.00;;;;;;;47.33;17.33;101482.19;5014476;28;20429;-75
2023/09/03 11:02:25;;;;;;;;;;;;;;;47.55;17.21;101485.50;5017129;28;20030;-74
2023/09/03 11:05:09;;;;;;;0.00;0.00;;;;;;;49.07;16.79;101480.13;5005698;28;20382;-76
2023/09/03 11:07:34;;;;;;;0.00;0.00;;;;;;;49.81;16.11;101474.13;5005805;28;20397;-75
2023/09/03 11:10:25;;;;;;;0.00;0.00;;;;;;;49.55;15.88;101478.72;5016169;28;20052;-75
2023/09/03 11:12:52;;;;;;;0.00;0.00;;;;;;;47.87;16.65;101467.53;5024297;28;20041;-75
2023/09/03 11:15:18;;;;;;;0.00;0.00;;;;;;;46.77;17.32;101470.38;5002261;28;20439;-74
2023/09/03 11:17:54;;;;;;;0.00;0.00;;;;;;;47.12;17.70;101472.63;5022366;28;20037;-75
2023/09/03 11:20:28;;;;;;;0.00;0.00;;;;;;;47.23;17.08;101466.22;5019115;28;20038;-74
2023/09/03 11:23:02;;;;;;;0.00;0.00;;;;;;;46.96;16.78;101466.00;5006846;28;20439;-75
2023/09/03 11:25:35;;;;;;;0.00;0.00;;;;;;;46.73;16.39;101464.00;5007265;28;20053;-74
2023/09/03 11:28:02;;;;;;;0.00;0.00;;;;;;;47.37;16.70;101460.47;4986849;28;20125;-75
2023/09/03 11:30:28;;;;;;;0.00;0.00;;;;;;;48.22;15.63;101458.03;5008998;28;20758;-74
2023/09/03 11:32:54;;;;;;;0.00;0.00;;;;;;;48.87;15.42;101459.88;5016434;28;20037;-75
2023/09/03 11:35:20;;;;;;;0.00;0.00;;;;;;;48.91;15.36;101455.44;5005434;28;21489;-74
2023/09/03 11:37:45;;;;;;;0.00;0.00;;;;;;;49.07;15.08;101450.31;5005277;28;20021;-75
2023/09/03 11:40:12;;;;;;;0.00;0.00;;;;;;;49.23;14.73;101440.16;5002487;28;20021;-74
2023/09/03 11:42:41;;;;;;;0.00;0.00;;;;;;;49.27;14.82;101446.53;5002461;28;20044;-74
2023/09/03 11:45:09;;;;;;;0.00;0.00;;;;;;;49.39;14.71;101444.50;5011388;28;20065;-74